Time;durP1;ratioP1;P1;durP2;ratioP2;P2;SDS_P1;SDS_P2;PMS_P1;PMS_P2;Temp;Humidity;BMP_temperature;BMP_pressure;BME280_temperature;BME280_humidity;BME280_pressure;Samples;Min_cycle;Max_cycle;Signal;HPM_P1;HPM_P2
2024/02/11 00:01:12;;;;;;;41.20;18.58;;;8.10;99.90;;;;;;4934309;29;20025;-75
2024/02/11 00:03:38;;;;;;;43.97;19.67;;;8.10;99.90;;;;;;4934899;29;20087;-75
2024/02/11 00:06:09;;;;;;;46.63;19.60;;;8.00;99.90;;;;;;4935010;29;20031;-75
2024/02/11 00:08:38;;;;;;;45.83;19.17;;;8.00;99.90;;;;;;4936430;28;20234;-76
2024/02/11 00:11:04;;;;;;;46.13;19.77;;;8.00;99.90;;;;;;4954322;29;20030;-77
2024/02/11 00:13:31;;;;;;;48.35;20.13;;;7.90;99.90;;;;;;4954084;28;20015;-76
2024/02/11 00:16:08;;;;;;;43.47;19.58;;;7.90;99.90;;;;;;4954039;28;20034;-74
2024/02/11 00:18:34;;;;;;;49.45;20.48;;;7.90;99.90;;;;;;4954157;28;20473;-75
2024/02/11 00:21:01;;;;;;;44.25;19.77;;;7.90;99.90;;;;;;4936535;28;20079;-77
2024/02/11 00:23:28;;;;;;;49.08;20.90;;;7.90;99.90;;;;;;4937760;29;20032;-76
2024/02/11 00:25:54;;;;;;;51.47;20.33;;;7.80;99.90;;;;;;4937527;29;20023;-75
2024/02/11 00:28:25;;;;;;;50.25;20.08;;;7.80;99.90;;;;;;4936169;29;20401;-75
2024/02/11 00:30:53;;;;;;;51.33;20.02;;;7.80;99.90;;;;;;4936681;29;20091;-75
2024/02/11 00:33:20;;;;;;;47.65;19.98;;;7.80;99.90;;;;;;4936633;29;20129;-76
2024/02/11 00:35:46;;;;;;;49.78;20.95;;;7.70;99.90;;;;;;4936051;29;20028;-76
2024/02/11 00:38:15;;;;;;;52.08;21.13;;;7.70;99.90;;;;;;4954524;28;20028;-77
2024/02/11 00:40:41;;;;;;;53.55;21.45;;;7.70;99.90;;;;;;4936730;29;20027;-76
2024/02/11 00:43:09;;;;;;;51.72;21.45;;;7.70;99.90;;;;;;4954290;28;20023;-76
2024/02/11 00:45:35;;;;;;;51.08;20.83;;;7.70;99.90;;;;;;4937666;28;20215;-76
2024/02/11 00:48:03;;;;;;;54.22;21.92;;;7.70;99.90;;;;;;4952947;28;20072;-75
2024/02/11 00:50:32;;;;;;;54.40;21.98;;;7.70;99.90;;;;;;4954475;28;20026;-75
2024/02/11 00:53:05;;;;;;;53.08;22.15;;;7.70;99.90;;;;;;4954162;28;20054;-77
2024/02/11 00:55:33;;;;;;;54.88;23.30;;;7.70;99.90;;;;;;4937439;29;20481;-76
2024/02/11 00:58:00;;;;;;;57.78;22.83;;;7.60;99.90;;;;;;4937494;29;20034;-76
2024/02/11 01:00:25;;;;;;;54.17;21.55;;;7.60;99.90;;;;;;4937195;29;20495;-76
2024/02/11 01:02:51;;;;;;;53.95;22.20;;;7.70;99.90;;;;;;4936747;29;20027;-76
2024/02/11 01:05:19;;;;;;;57.15;22.73;;;7.60;99.90;;;;;;4954388;28;20055;-75
2024/02/11 01:07:45;;;;;;;57.80;22.35;;;7.60;99.90;;;;;;4937024;29;20154;-75
2024/02/11 01:10:11;;;;;;;58.50;22.90;;;7.60;99.90;;;;;;4952846;28;20051;-76
2024/02/11 01:12:39;;;;;;;56.75;22.33;;;7.60;99.90;;;;;;4935367;29;20019;-75
2024/02/11 01:15:06;;;;;;;57.85;22.48;;;7.60;99.90;;;;;;4953988;28;20028;-75
2024/02/11 01:17:31;;;;;;;59.95;23.13;;;7.60;99.90;;;;;;4953005;28;20061;-76
2024/02/11 01:19:57;;;;;;;59.47;22.65;;;7.50;99.90;;;;;;4953271;29;20095;-76
2024/02/11 01:22:22;;;;;;;57.67;22.17;;;7.50;99.90;;;;;;4954178;28;20519;-75
2024/02/11 01:24:48;;;;;;;60.33;22.73;;;7.50;99.90;;;;;;4954318;29;20038;-75
2024/02/11 01:27:13;;;;;;;53.65;22.00;;;7.50;99.90;;;;;;4936969;29;20063;-75
2024/02/11 01:29:40;;;;;;;56.80;22.80;;;7.50;99.90;;;;;;4936822;29;20039;-75
2024/02/11 01:32:06;;;;;;;56.65;21.77;;;7.50;99.90;;;;;;4939089;29;20020;-76
2024/02/11 01:34:32;;;;;;;56.78;22.95;;;7.50;99.90;;;;;;4940667;29;20031;-75
2024/02/11 01:36:59;;;;;;;61.88;23.50;;;7.50;99.90;;;;;;4957836;28;20032;-75
2024/02/11 01:39:25;;;;;;;60.08;22.63;;;7.50;99.90;;;;;;4957473;28;20028;-74
2024/02/11 01:41:51;;;;;;;59.30;23.02;;;7.50;99.90;;;;;;4957537;28;20117;-76
2024/02/11 01:44:16;;;;;;;62.85;22.08;;;7.40;99.90;;;;;;4957352;28;20047;-75
2024/02/11 01:46:42;;;;;;;52.35;21.35;;;7.40;99.90;;;;;;4957119;28;20043;-75
2024/02/11 01:49:10;;;;;;;56.80;21.77;;;7.40;99.90;;;;;;4940425;29;20024;-75
2024/02/11 01:51:42;;;;;;;53.45;20.95;;;7.40;99.90;;;;;;4957226;28;20047;-77
2024/02/11 01:54:10;;;;;;;54.60;21.20;;;7.40;99.90;;;;;;4957082;29;20040;-76
2024/02/11 01:56:36;;;;;;;54.65;21.25;;;7.40;99.90;;;;;;4939568;29;20032;-75
2024/02/11 01:59:02;;;;;;;60.65;21.23;;;7.40;99.90;;;;;;4940231;29;20032;-76
2024/02/11 02:01:29;;;;;;;57.10;20.50;;;7.30;99.90;;;;;;4940352;29;20056;-75
2024/02/11 02:03:56;;;;;;;58.47;21.50;;;7.30;99.90;;;;;;4939380;29;20034;-75
2024/02/11 02:06:22;;;;;;;62.20;22.88;;;7.30;99.90;;;;;;4957264;28;20457;-76
2024/02/11 02:08:48;;;;;;;63.85;21.02;;;7.30;99.90;;;;;;4939861;29;20063;-76
2024/02/11 02:11:14;;;;;;;57.75;21.00;;;7.30;99.90;;;;;;4939809;29;20023;-75
2024/02/11 02:13:40;;;;;;;62.22;21.83;;;7.30;99.90;;;;;;4956991;28;20028;-74
2024/02/11 02:16:08;;;;;;;58.50;22.10;;;7.30;99.90;;;;;;4939863;29;20023;-76
2024/02/11 02:18:35;;;;;;;58.00;21.35;;;7.30;99.90;;;;;;4957235;28;20039;-75
2024/02/11 02:21:02;;;;;;;64.22;22.98;;;7.30;99.90;;;;;;4956641;28;20035;-76
2024/02/11 02:23:29;;;;;;;63.67;22.63;;;7.20;99.90;;;;;;4940128;29;20059;-75
2024/02/11 02:25:56;;;;;;;68.80;22.00;;;7.20;99.90;;;;;;4956803;28;20023;-75
2024/02/11 02:28:22;;;;;;;62.13;23.08;;;7.20;99.90;;;;;;4956679;28;20051;-74
2024/02/11 02:30:47;;;;;;;63.22;22.35;;;7.20;99.90;;;;;;4956979;28;20078;-75
2024/02/11 02:33:13;;;;;;;65.18;23.60;;;7.20;99.90;;;;;;4956115;28;20039;-75
2024/02/11 02:35:38;;;;;;;61.85;23.77;;;7.20;99.90;;;;;;4956903;28;20042;-75
2024/02/11 02:38:04;;;;;;;62.75;23.83;;;7.20;99.90;;;;;;4956399;28;20035;-76
2024/02/11 02:40:31;;;;;;;72.68;24.08;;;7.20;99.90;;;;;;4939218;29;20023;-74
2024/02/11 02:42:59;;;;;;;67.20;23.88;;;7.20;99.90;;;;;;4939248;29;20024;-75
2024/02/11 02:45:25;;;;;;;69.88;23.63;;;7.20;99.90;;;;;;4956491;29;20019;-75
2024/02/11 02:47:51;;;;;;;69.10;23.95;;;7.20;99.90;;;;;;4939220;29;20107;-75
2024/02/11 02:50:16;;;;;;;68.40;23.55;;;7.20;99.90;;;;;;4956627;28;20024;-76
2024/02/11 02:52:43;;;;;;;69.15;24.60;;;7.20;99.90;;;;;;4938859;28;20087;-76
2024/02/11 02:55:09;;;;;;;71.72;23.42;;;7.20;99.90;;;;;;4939032;29;20426;-75
2024/02/11 02:57:35;;;;;;;71.43;24.17;;;7.20;99.90;;;;;;4956774;28;20034;-75
2024/02/11 03:00:09;;;;;;;76.00;25.35;;;7.10;99.90;;;;;;4938901;29;20408;-75
2024/02/11 03:02:35;;;;;;;68.97;24.02;;;7.20;99.90;;;;;;4956143;28;20063;-76
2024/02/11 03:05:02;;;;;;;67.32;23.02;;;7.20;99.90;;;;;;4938976;28;20020;-76
2024/02/11 03:07:28;;;;;;;70.28;23.73;;;7.20;99.90;;;;;;4938234;29;20047;-76
2024/02/11 03:09:54;;;;;;;55.97;22.42;;;7.20;99.90;;;;;;4938508;29;20664;-76
2024/02/11 03:12:19;;;;;;;58.85;22.52;;;7.20;99.90;;;;;;4944650;29;20133;-76
2024/02/11 03:14:46;;;;;;;66.80;22.33;;;7.20;99.90;;;;;;4955650;28;20031;-76
2024/02/11 03:17:12;;;;;;;68.32;22.92;;;7.10;99.90;;;;;;4955345;28;20073;-76
2024/02/11 03:19:37;;;;;;;60.60;22.30;;;7.10;99.90;;;;;;4956005;28;20031;-76
2024/02/11 03:22:03;;;;;;;63.33;23.58;;;7.10;99.90;;;;;;4937912;29;20023;-77
2024/02/11 03:24:29;;;;;;;58.15;22.85;;;7.10;99.90;;;;;;4938977;29;20035;-76
2024/02/11 03:26:54;;;;;;;68.68;22.88;;;7.10;99.90;;;;;;4955839;28;20051;-77
2024/02/11 03:29:20;;;;;;;62.17;23.25;;;7.10;99.90;;;;;;4938381;29;20034;-76
2024/02/11 03:31:46;;;;;;;63.83;23.02;;;7.10;99.90;;;;;;4938385;29;20056;-75
2024/02/11 03:34:11;;;;;;;62.25;22.00;;;7.10;99.90;;;;;;4938033;29;20020;-76
2024/02/11 03:36:38;;;;;;;67.22;22.38;;;7.10;99.90;;;;;;4938402;29;20020;-75
2024/02/11 03:39:09;;;;;;;65.57;21.58;;;7.10;99.90;;;;;;4955139;28;20027;-76
2024/02/11 03:41:35;;;;;;;60.90;22.65;;;7.10;99.90;;;;;;4938324;29;20055;-77
2024/02/11 03:44:00;;;;;;;68.18;22.73;;;7.10;99.90;;;;;;4955632;29;20028;-76
2024/02/11 03:46:27;;;;;;;55.40;21.40;;;7.10;99.90;;;;;;4937915;29;20031;-77
2024/02/11 03:48:56;;;;;;;65.97;22.20;;;7.10;99.90;;;;;;4955638;28;20031;-76
2024/02/11 03:51:23;;;;;;;59.42;22.23;;;7.10;99.90;;;;;;4954936;28;20019;-76
2024/02/11 03:53:49;;;;;;;63.47;22.98;;;7.00;99.90;;;;;;4937498;29;20034;-76
2024/02/11 03:56:14;;;;;;;59.50;22.48;;;7.00;99.90;;;;;;4954796;28;20031;-76
2024/02/11 03:58:42;;;;;;;65.43;22.90;;;7.00;99.90;;;;;;4938112;29;20028;-75
2024/02/11 04:01:07;;;;;;;65.70;22.75;;;7.00;99.90;;;;;;4938063;29;20023;-76
2024/02/11 04:03:33;;;;;;;54.97;21.90;;;7.00;99.90;;;;;;4954977;28;20024;-76
2024/02/11 04:06:01;;;;;;;58.92;21.83;;;7.00;99.90;;;;;;4938277;29;20039;-76
2024/02/11 04:08:26;;;;;;;63.65;22.42;;;7.00;99.90;;;;;;4937944;29;20039;-76
2024/02/11 04:10:52;;;;;;;77.30;22.70;;;7.00;99.90;;;;;;4937616;29;20039;-76
2024/02/11 04:13:25;;;;;;;67.78;23.08;;;7.00;99.90;;;;;;4937715;28;20019;-76
2024/02/11 04:15:56;;;;;;;68.03;22.93;;;7.00;99.90;;;;;;4937733;29;20023;-76
2024/02/11 04:18:25;;;;;;;62.85;21.90;;;7.00;99.90;;;;;;4955110;28;20091;-77
2024/02/11 04:20:54;;;;;;;62.20;22.15;;;7.00;99.90;;;;;;4937610;29;20050;-75
2024/02/11 04:23:20;;;;;;;59.63;21.30;;;7.00;99.90;;;;;;4953784;28;20039;-76
2024/02/11 04:25:46;;;;;;;62.70;22.48;;;7.00;99.90;;;;;;4937415;28;20019;-77
2024/02/11 04:28:12;;;;;;;66.63;21.80;;;7.00;99.90;;;;;;4937483;29;20035;-77
2024/02/11 04:30:42;;;;;;;58.65;21.67;;;6.90;99.90;;;;;;4935028;29;20056;-76
2024/02/11 04:33:08;;;;;;;63.83;22.08;;;6.90;99.90;;;;;;4953875;28;20023;-76
2024/02/11 04:35:35;;;;;;;65.15;22.50;;;7.00;99.90;;;;;;4954952;28;20082;-77
2024/02/11 04:38:07;;;;;;;56.70;21.35;;;6.90;99.90;;;;;;4937455;29;20030;-77
2024/02/11 04:40:34;;;;;;;56.97;21.13;;;6.90;99.90;;;;;;4954453;28;20480;-77
2024/02/11 04:43:00;;;;;;;57.60;21.45;;;6.90;99.90;;;;;;4937544;29;20032;-77
2024/02/11 04:45:26;;;;;;;63.10;21.70;;;6.90;99.90;;;;;;4954287;28;20023;-76
2024/02/11 04:48:03;;;;;;;65.10;22.38;;;6.80;99.90;;;;;;4937268;29;20095;-75
2024/02/11 04:50:31;;;;;;;60.85;22.48;;;6.90;99.90;;;;;;4937506;29;20033;-77
2024/02/11 04:53:01;;;;;;;57.83;21.35;;;6.80;99.90;;;;;;4953821;28;20799;-76
2024/02/11 04:55:43;;;;;;;62.15;22.38;;;6.80;99.90;;;;;;4937483;28;20035;-76
2024/02/11 04:58:19;;;;;;;68.28;22.30;;;6.80;99.90;;;;;;4954226;28;20016;-77
2024/02/11 05:00:47;;;;;;;60.45;21.35;;;6.80;99.90;;;;;;4937140;29;20032;-76
2024/02/11 05:03:17;;;;;;;71.50;23.15;;;6.80;99.90;;;;;;4936826;29;20030;-75
2024/02/11 05:05:43;;;;;;;69.50;24.88;;;6.80;99.90;;;;;;4937820;28;20062;-75
2024/02/11 05:08:09;;;;;;;62.20;21.67;;;6.80;99.90;;;;;;4940186;29;20058;-76
2024/02/11 05:10:37;;;;;;;62.10;21.70;;;6.80;99.90;;;;;;4940934;29;20051;-76
2024/02/11 05:13:07;;;;;;;60.15;21.67;;;6.80;99.90;;;;;;4956192;28;20932;-76
2024/02/11 05:15:33;;;;;;;68.35;22.67;;;6.80;99.90;;;;;;4958357;28;20019;-78
2024/02/11 05:18:00;;;;;;;78.43;22.10;;;6.70;99.90;;;;;;4958725;28;20035;-77
2024/02/11 05:20:27;;;;;;;71.13;22.83;;;6.80;99.90;;;;;;4957789;28;20027;-76
2024/02/11 05:22:57;;;;;;;81.65;23.92;;;6.70;99.90;;;;;;4957870;28;20024;-75
2024/02/11 05:25:25;;;;;;;71.75;22.65;;;6.70;99.90;;;;;;4941007;29;20050;-75
2024/02/11 05:27:53;;;;;;;74.03;22.08;;;6.70;99.90;;;;;;4938282;28;20075;-75
2024/02/11 05:30:19;;;;;;;79.40;23.73;;;6.70;99.90;;;;;;4934421;28;20035;-77
2024/02/11 05:32:48;;;;;;;62.03;22.58;;;6.80;99.90;;;;;;4938762;29;20023;-79
2024/02/11 05:35:15;;;;;;;63.90;22.38;;;6.70;99.90;;;;;;4939887;28;20028;-76
2024/02/11 05:37:41;;;;;;;62.83;22.05;;;6.70;99.90;;;;;;4937261;29;20036;-76
2024/02/11 05:40:10;;;;;;;57.30;21.13;;;6.70;99.90;;;;;;4955944;28;20026;-77
2024/02/11 05:42:42;;;;;;;63.03;21.17;;;6.70;99.90;;;;;;4954694;28;20016;-77
2024/02/11 05:45:09;;;;;;;65.43;21.92;;;6.70;99.90;;;;;;4939532;28;20072;-78
2024/02/11 05:47:34;;;;;;;70.18;22.88;;;6.70;99.90;;;;;;4938080;29;20087;-77
2024/02/11 05:50:00;;;;;;;64.63;21.67;;;6.60;99.90;;;;;;4935484;29;20023;-77
2024/02/11 05:52:26;;;;;;;67.20;22.48;;;6.70;99.90;;;;;;4956904;28;20042;-77
2024/02/11 05:54:51;;;;;;;66.65;22.35;;;6.70;99.90;;;;;;4939336;29;20096;-76
2024/02/11 05:57:17;;;;;;;71.53;21.60;;;6.70;99.90;;;;;;4955486;28;20063;-77
2024/02/11 05:59:42;;;;;;;66.03;21.27;;;6.70;99.90;;;;;;4947765;29;20027;-77
2024/02/11 06:02:09;;;;;;;70.43;23.25;;;6.60;99.90;;;;;;4925187;29;20027;-77
2024/02/11 06:04:34;;;;;;;56.13;21.00;;;6.70;99.90;;;;;;4931874;29;20078;-76
2024/02/11 06:07:00;;;;;;;61.10;22.23;;;6.70;99.90;;;;;;4938135;28;20126;-77
2024/02/11 06:09:25;;;;;;;79.20;22.33;;;6.60;99.90;;;;;;4937738;28;20858;-77
2024/02/11 06:11:53;;;;;;;61.53;20.38;;;6.70;99.90;;;;;;4937002;29;20033;-76
2024/02/11 06:14:19;;;;;;;59.13;20.38;;;6.70;99.90;;;;;;4954518;28;20015;-77
2024/02/11 06:16:45;;;;;;;73.00;21.50;;;6.60;99.90;;;;;;4938425;29;20027;-76
2024/02/11 06:19:10;;;;;;;67.00;21.92;;;6.60;99.90;;;;;;4956774;28;20020;-78
2024/02/11 06:21:36;;;;;;;61.13;21.38;;;6.60;99.90;;;;;;4939563;29;20059;-78
2024/02/11 06:24:05;;;;;;;70.75;22.33;;;6.60;99.90;;;;;;4939321;28;20024;-76
2024/02/11 06:26:30;;;;;;;70.82;22.02;;;6.60;99.90;;;;;;4955149;28;20031;-76
2024/02/11 06:28:58;;;;;;;71.45;22.05;;;6.60;99.90;;;;;;4934591;29;20032;-78
2024/02/11 06:31:24;;;;;;;64.00;21.73;;;6.60;99.90;;;;;;4955150;28;20027;-76
2024/02/11 06:33:53;;;;;;;74.25;22.27;;;6.60;99.90;;;;;;4934630;29;20070;-77
2024/02/11 06:36:19;;;;;;;65.38;22.05;;;6.70;99.90;;;;;;4937959;29;20074;-76
2024/02/11 06:38:45;;;;;;;67.90;22.35;;;6.70;99.90;;;;;;4937063;29;20039;-77
2024/02/11 06:41:11;;;;;;;72.60;22.05;;;6.70;99.90;;;;;;4956482;28;20016;-77
2024/02/11 06:43:40;;;;;;;78.93;22.27;;;6.60;99.90;;;;;;4939395;29;20027;-77
2024/02/11 06:46:05;;;;;;;73.55;22.15;;;6.70;99.90;;;;;;4938286;28;20425;-77
2024/02/11 06:48:31;;;;;;;66.10;21.02;;;6.70;99.90;;;;;;4938931;29;20045;-76
2024/02/11 06:50:56;;;;;;;69.50;22.40;;;6.60;99.90;;;;;;4939465;29;20035;-77
2024/02/11 06:53:23;;;;;;;70.85;22.10;;;6.60;99.90;;;;;;4939113;29;20026;-77
2024/02/11 06:55:49;;;;;;;68.70;21.52;;;6.60;99.90;;;;;;4936557;29;20028;-78
2024/02/11 06:58:14;;;;;;;73.50;21.83;;;6.60;99.90;;;;;;4952143;28;20030;-79
2024/02/11 07:00:40;;;;;;;76.60;22.52;;;6.60;99.90;;;;;;4936251;28;20055;-75
2024/02/11 07:03:06;;;;;;;77.72;22.20;;;6.60;99.90;;;;;;4951819;29;20099;-78
2024/02/11 07:05:31;;;;;;;69.45;22.45;;;6.60;99.90;;;;;;4936150;29;20405;-78
2024/02/11 07:08:00;;;;;;;92.32;23.38;;;6.60;99.90;;;;;;4953825;29;20109;-77
2024/02/11 07:10:26;;;;;;;80.80;23.05;;;6.70;99.90;;;;;;4932141;29;20048;-79
2024/02/11 07:12:52;;;;;;;80.93;24.20;;;6.60;99.90;;;;;;4934868;29;20062;-78
2024/02/11 07:15:19;;;;;;;73.78;21.60;;;6.60;99.90;;;;;;4935048;29;20079;-76
2024/02/11 07:17:44;;;;;;;80.10;22.50;;;6.70;99.90;;;;;;4935521;29;20047;-77
2024/02/11 07:20:14;;;;;;;82.07;22.13;;;6.70;99.90;;;;;;4936261;29;20087;-76
2024/02/11 07:22:43;;;;;;;84.22;22.23;;;6.70;99.90;;;;;;4935848;29;20031;-75
2024/02/11 07:25:09;;;;;;;72.95;21.08;;;6.70;99.90;;;;;;4936295;29;20024;-76
2024/02/11 07:27:35;;;;;;;73.60;21.27;;;6.70;99.90;;;;;;4935010;29;20067;-77
2024/02/11 07:30:02;;;;;;;71.38;22.15;;;6.70;99.90;;;;;;4928038;29;20036;-76
2024/02/11 07:32:28;;;;;;;83.25;23.48;;;6.70;99.90;;;;;;4933869;29;20120;-77
2024/02/11 07:35:00;;;;;;;73.20;22.77;;;6.70;99.90;;;;;;4932791;29;20024;-76
2024/02/11 07:37:25;;;;;;;98.70;24.13;;;6.70;99.90;;;;;;4935126;29;20067;-77
2024/02/11 07:39:51;;;;;;;86.75;23.13;;;6.70;99.90;;;;;;4934774;29;20016;-75
2024/02/11 07:42:16;;;;;;;83.60;23.65;;;6.70;99.90;;;;;;4933919;29;20035;-77
2024/02/11 07:44:42;;;;;;;82.38;23.38;;;6.80;99.90;;;;;;4933477;29;20404;-76
2024/02/11 07:47:09;;;;;;;65.93;22.35;;;6.80;99.90;;;;;;4932970;29;20100;-76
2024/02/11 07:49:36;;;;;;;83.25;22.77;;;6.70;99.90;;;;;;4925832;29;20121;-76
2024/02/11 07:52:02;;;;;;;70.72;20.80;;;6.70;99.90;;;;;;4930544;29;20035;-76
2024/02/11 07:54:27;;;;;;;82.90;23.65;;;6.70;99.90;;;;;;4933543;29;20024;-77
2024/02/11 07:56:53;;;;;;;75.85;22.88;;;6.70;99.90;;;;;;4931672;29;20099;-77
2024/02/11 07:59:19;;;;;;;84.95;23.33;;;6.70;99.90;;;;;;4931411;29;20497;-76
2024/02/11 08:01:45;;;;;;;103.10;25.40;;;6.70;99.90;;;;;;4931354;29;20054;-75
2024/02/11 08:04:10;;;;;;;85.07;24.30;;;6.70;99.90;;;;;;4929830;29;20475;-76
2024/02/11 08:06:36;;;;;;;94.35;24.30;;;6.80;99.90;;;;;;4932598;29;20056;-75
2024/02/11 08:09:02;;;;;;;80.60;22.30;;;6.80;99.90;;;;;;4933423;29;20064;-75
2024/02/11 08:11:30;;;;;;;75.72;23.20;;;6.80;99.90;;;;;;4934704;29;20128;-75
2024/02/11 08:13:56;;;;;;;83.38;22.90;;;6.70;99.90;;;;;;4933178;29;20091;-77
2024/02/11 08:16:22;;;;;;;72.93;21.73;;;6.70;99.90;;;;;;4933978;29;20072;-76
2024/02/11 08:18:48;;;;;;;85.90;24.25;;;6.70;99.90;;;;;;4936226;29;20027;-75
2024/02/11 08:21:14;;;;;;;78.47;23.88;;;6.60;99.90;;;;;;4934254;29;20028;-75
2024/02/11 08:23:40;;;;;;;76.63;23.95;;;6.60;99.90;;;;;;4933018;29;20026;-75
2024/02/11 08:26:06;;;;;;;88.00;24.80;;;6.70;99.90;;;;;;4931768;29;20486;-75
2024/02/11 08:28:32;;;;;;;70.05;22.58;;;6.70;99.90;;;;;;4925210;29;20039;-76
2024/02/11 08:30:58;;;;;;;80.90;23.20;;;6.70;99.90;;;;;;4926965;29;20028;-77
2024/02/11 08:33:24;;;;;;;73.43;23.30;;;6.80;99.90;;;;;;4930891;29;20814;-75
2024/02/11 08:35:51;;;;;;;92.57;23.45;;;6.70;99.90;;;;;;4931613;29;20032;-75
2024/02/11 08:38:16;;;;;;;76.85;23.02;;;6.70;99.90;;;;;;4933752;29;20044;-75
2024/02/11 08:40:43;;;;;;;85.10;23.73;;;6.70;99.90;;;;;;4930291;29;20031;-76
2024/02/11 08:43:08;;;;;;;70.95;22.80;;;6.80;99.90;;;;;;4933497;29;20020;-77
2024/02/11 08:45:35;;;;;;;71.93;22.67;;;6.80;99.90;;;;;;4935687;29;20024;-76
2024/02/11 08:48:00;;;;;;;78.82;23.50;;;6.80;99.90;;;;;;4932854;29;20090;-77
2024/02/11 08:50:26;;;;;;;71.45;23.48;;;6.90;99.90;;;;;;4927553;29;20032;-78
2024/02/11 08:52:52;;;;;;;78.22;22.45;;;6.80;99.90;;;;;;4932375;29;20027;-77
2024/02/11 08:55:18;;;;;;;83.60;24.10;;;6.80;99.90;;;;;;4933270;29;20031;-77
2024/02/11 08:57:47;;;;;;;82.93;23.13;;;6.80;99.90;;;;;;4934369;29;20019;-76
2024/02/11 09:00:18;;;;;;;78.55;23.95;;;6.80;99.90;;;;;;4932783;29;20118;-76
2024/02/11 09:02:47;;;;;;;93.53;24.83;;;6.80;99.90;;;;;;4933351;29;20039;-76
2024/02/11 09:05:12;;;;;;;76.68;22.77;;;6.80;99.90;;;;;;4933599;29;20122;-75
2024/02/11 09:07:38;;;;;;;79.43;24.30;;;6.80;99.90;;;;;;4933265;29;20048;-77
2024/02/11 09:10:05;;;;;;;81.72;22.45;;;6.80;99.90;;;;;;4931577;29;20079;-75
2024/02/11 09:12:31;;;;;;;86.03;24.05;;;6.80;99.90;;;;;;4934865;29;20039;-77
2024/02/11 09:14:56;;;;;;;77.10;23.52;;;6.80;99.90;;;;;;4935676;29;20362;-77
2024/02/11 09:17:22;;;;;;;83.28;24.15;;;6.90;99.90;;;;;;4935093;29;20035;-75
2024/02/11 09:19:48;;;;;;;70.65;22.92;;;6.90;99.90;;;;;;4929002;29;20032;-76
2024/02/11 09:22:13;;;;;;;85.32;24.33;;;6.90;99.90;;;;;;4931076;29;20067;-76
2024/02/11 09:24:39;;;;;;;80.97;24.30;;;6.90;99.90;;;;;;4931553;29;20040;-75
2024/02/11 09:27:07;;;;;;;105.75;24.02;;;6.90;99.90;;;;;;4929949;29;20040;-77
2024/02/11 09:29:35;;;;;;;73.95;22.25;;;6.90;99.90;;;;;;4927174;29;20031;-75
2024/02/11 09:32:02;;;;;;;88.15;23.40;;;6.90;99.90;;;;;;4941206;28;20075;-75
2024/02/11 09:34:28;;;;;;;106.70;24.95;;;6.90;99.90;;;;;;4935454;28;20043;-76
2024/02/11 09:36:54;;;;;;;67.95;22.85;;;6.90;99.90;;;;;;4932511;29;20417;-76
2024/02/11 09:39:19;;;;;;;89.70;23.45;;;6.90;99.90;;;;;;4931858;29;20047;-77
2024/02/11 09:41:48;;;;;;;77.35;23.00;;;6.90;99.90;;;;;;4933927;29;20700;-77
2024/02/11 09:44:22;;;;;;;93.65;24.67;;;6.90;99.90;;;;;;4932124;29;20071;-75
2024/02/11 09:46:54;;;;;;;84.18;23.70;;;6.90;99.90;;;;;;4930477;29;20024;-78
2024/02/11 09:49:21;;;;;;;89.60;24.70;;;6.90;99.90;;;;;;4933521;29;20035;-77
2024/02/11 09:51:48;;;;;;;114.85;25.48;;;6.90;99.90;;;;;;4934152;29;20024;-77
2024/02/11 09:54:15;;;;;;;104.10;24.45;;;6.90;99.90;;;;;;4937278;29;20027;-78
2024/02/11 09:56:42;;;;;;;84.15;24.63;;;6.90;99.90;;;;;;4937856;29;20062;-76
2024/02/11 09:59:11;;;;;;;80.95;24.33;;;6.90;99.90;;;;;;4935051;29;20032;-75
2024/02/11 10:04:32;;;;;;;91.55;24.65;;;7.00;99.90;;;;;;5475126;23;20090;-66
2024/02/11 10:07:36;;;;;;;82.43;24.00;;;6.90;99.90;;;;;;4968202;28;20344;-67
2024/02/11 10:10:03;;;;;;;79.07;22.65;;;7.00;99.90;;;;;;4907335;29;20060;-68
2024/02/11 10:12:29;;;;;;;109.70;25.20;;;7.00;99.90;;;;;;4963827;28;20067;-65
2024/02/11 10:14:56;;;;;;;95.50;25.25;;;7.00;99.90;;;;;;4953514;28;20054;-67
2024/02/11 10:17:28;;;;;;;99.88;25.17;;;7.10;99.90;;;;;;4975358;28;20062;-69
2024/02/11 10:19:54;;;;;;;96.40;25.25;;;7.10;99.90;;;;;;4956270;28;20670;-66
2024/02/11 10:22:24;;;;;;;83.03;23.98;;;7.10;99.90;;;;;;4973209;28;20525;-66
2024/02/11 10:24:51;;;;;;;79.10;23.33;;;7.10;99.90;;;;;;4972768;28;20671;-66
2024/02/11 10:27:17;;;;;;;88.07;24.48;;;7.10;99.90;;;;;;4975061;28;20110;-67
2024/02/11 10:29:44;;;;;;;114.13;25.40;;;7.20;99.90;;;;;;4974444;28;20114;-65
2024/02/11 10:32:15;;;;;;;90.40;24.55;;;7.20;99.90;;;;;;4971926;28;20037;-66
2024/02/11 10:34:43;;;;;;;72.90;23.38;;;7.20;99.90;;;;;;4965922;28;20043;-67
2024/02/11 10:37:15;;;;;;;72.35;23.13;;;7.20;99.90;;;;;;4967605;28;20099;-67
2024/02/11 10:39:42;;;;;;;74.88;23.02;;;7.20;99.90;;;;;;4966415;28;20487;-65
2024/02/11 10:42:08;;;;;;;86.80;24.27;;;7.20;99.90;;;;;;4955113;28;20035;-66
2024/02/11 10:44:39;;;;;;;78.28;23.33;;;7.20;99.90;;;;;;4973375;28;20042;-66
2024/02/11 10:47:08;;;;;;;76.50;22.95;;;7.20;99.90;;;;;;4972858;28;20407;-66
2024/02/11 10:49:34;;;;;;;80.63;22.33;;;7.20;99.90;;;;;;4974597;28;20034;-67
2024/02/11 10:52:06;;;;;;;82.68;23.88;;;7.20;99.90;;;;;;4956675;28;20555;-66
2024/02/11 10:54:42;;;;;;;73.63;22.48;;;7.20;99.90;;;;;;4974512;28;20506;-67
2024/02/11 10:57:19;;;;;;;94.13;24.10;;;7.20;99.90;;;;;;4942546;28;20045;-67
2024/02/11 10:59:58;;;;;;;73.13;21.75;;;7.30;99.90;;;;;;4968261;28;20492;-67
2024/02/11 11:02:27;;;;;;;78.10;23.45;;;7.30;99.90;;;;;;4947160;28;20400;-66
2024/02/11 11:04:57;;;;;;;83.60;22.88;;;7.30;99.90;;;;;;4951038;28;20039;-66
2024/02/11 11:07:23;;;;;;;76.75;22.15;;;7.30;99.90;;;;;;4951968;28;20103;-67
2024/02/11 11:09:49;;;;;;;72.97;22.60;;;7.20;99.90;;;;;;4952939;28;20114;-67
2024/02/11 11:12:16;;;;;;;102.30;24.33;;;7.30;99.90;;;;;;4952336;28;20074;-67
2024/02/11 11:14:45;;;;;;;73.25;22.42;;;7.30;99.90;;;;;;4949515;28;20135;-67
2024/02/11 11:17:16;;;;;;;80.85;23.33;;;7.30;99.90;;;;;;4954697;28;20032;-66
2024/02/11 11:19:48;;;;;;;74.93;23.35;;;7.30;99.90;;;;;;4934294;29;20373;-67
2024/02/11 11:22:21;;;;;;;71.65;23.20;;;7.20;99.90;;;;;;4952871;29;20023;-66
2024/02/11 11:24:48;;;;;;;81.78;24.42;;;7.30;99.90;;;;;;4954896;28;20035;-66
2024/02/11 11:27:16;;;;;;;65.75;23.17;;;7.30;99.90;;;;;;4954881;28;20038;-67
2024/02/11 11:29:42;;;;;;;81.60;24.05;;;7.30;99.90;;;;;;4937482;29;20130;-66
2024/02/11 11:32:10;;;;;;;70.53;22.55;;;7.30;99.90;;;;;;4937525;29;20028;-68
2024/02/11 11:34:36;;;;;;;76.53;23.83;;;7.30;99.90;;;;;;4953698;28;20480;-67
2024/02/11 11:37:13;;;;;;;83.90;24.52;;;7.30;99.90;;;;;;4953414;28;20031;-69
2024/02/11 11:39:40;;;;;;;78.57;22.92;;;7.40;99.90;;;;;;4955057;29;20384;-70
2024/02/11 11:42:06;;;;;;;78.25;22.50;;;7.40;99.90;;;;;;4954905;28;20121;-68
2024/02/11 11:44:32;;;;;;;74.95;22.55;;;7.40;99.90;;;;;;4937447;29;20578;-66
2024/02/11 11:46:58;;;;;;;82.90;23.08;;;7.40;99.90;;;;;;4952774;28;20038;-67
2024/02/11 11:49:25;;;;;;;75.75;22.58;;;7.40;99.90;;;;;;4952523;29;20062;-64
2024/02/11 11:51:57;;;;;;;73.88;22.55;;;7.50;99.90;;;;;;4935913;29;20039;-65
2024/02/11 11:54:27;;;;;;;72.15;23.00;;;7.50;99.90;;;;;;4953516;28;20436;-67
2024/02/11 11:57:00;;;;;;;72.63;23.35;;;7.50;99.90;;;;;;4953202;28;20054;-67
2024/02/11 11:59:27;;;;;;;67.05;21.88;;;7.50;99.90;;;;;;4947061;29;20039;-65
2024/02/11 12:01:56;;;;;;;80.85;22.95;;;7.50;99.90;;;;;;4952625;28;20031;-66
2024/02/11 12:04:23;;;;;;;67.10;22.08;;;7.60;99.90;;;;;;4943803;28;20126;-68
2024/02/11 12:06:48;;;;;;;69.65;22.88;;;7.50;99.90;;;;;;4948477;29;20051;-69
2024/02/11 12:09:15;;;;;;;75.65;23.40;;;7.50;99.90;;;;;;4954303;28;20487;-68
2024/02/11 12:11:44;;;;;;;69.53;23.17;;;7.50;99.90;;;;;;4951718;28;20130;-67
2024/02/11 12:14:12;;;;;;;62.33;22.38;;;7.50;99.90;;;;;;4935826;28;20031;-67
2024/02/11 12:16:38;;;;;;;70.72;22.42;;;7.50;99.90;;;;;;4951003;28;20039;-67
2024/02/11 12:19:04;;;;;;;77.60;24.48;;;7.50;99.90;;;;;;4953833;28;20054;-66
2024/02/11 12:21:31;;;;;;;84.30;24.67;;;7.50;99.90;;;;;;4938420;29;20067;-66
2024/02/11 12:24:00;;;;;;;82.18;24.42;;;7.60;99.90;;;;;;4951654;28;20100;-66
2024/02/11 12:26:26;;;;;;;76.05;23.10;;;7.60;99.90;;;;;;4934545;28;20121;-66
2024/02/11 12:28:52;;;;;;;82.47;24.05;;;7.60;99.90;;;;;;4931334;29;20070;-67
2024/02/11 12:31:19;;;;;;;66.50;21.60;;;7.60;99.90;;;;;;4950754;28;20031;-68
2024/02/11 12:33:51;;;;;;;71.85;23.83;;;7.60;99.90;;;;;;4952077;28;20027;-67
2024/02/11 12:36:22;;;;;;;68.70;22.58;;;7.60;99.90;;;;;;4935997;28;20049;-66
2024/02/11 12:38:50;;;;;;;71.78;22.85;;;7.60;99.90;;;;;;4952694;28;20039;-70